Monday, December 10, 2018, 9:20 PM EST
Back to Local

K1P1, Plymouth, Plymouth Municipal Airport

Location: Plymouth, NH, United States Lat: 43.779
Local Time: 9:20 PM EST ( 2:20 GMT) Lon: -71.754
Time Zone: US/Eastern Elev: 505 ft

Show me the last for .
Show Decoded

2018-12-10 20:55 METAR K1P1 110155Z AUTO 25005KT 10SM CLR M07/M13 A3015 RMK AO2 T10741134 =
2018-12-10 20:35 METAR K1P1 110135Z AUTO 00000KT 10SM CLR M07/M13 A3016 RMK AO2 T10701133 =
2018-12-10 20:15 METAR K1P1 110115Z AUTO 27004KT 10SM CLR M07/M13 A3015 RMK AO2 T10701131 =
2018-12-10 19:55 METAR K1P1 110055Z AUTO 24005KT 10SM CLR M07/M13 A3015 RMK AO2 T10701130 =
2018-12-10 19:35 METAR K1P1 110035Z AUTO 29005KT 10SM CLR M07/M13 A3015 RMK AO2 T10691128 =
2018-12-10 19:15 METAR K1P1 110015Z AUTO 30005KT 10SM CLR M07/M13 A3015 RMK AO2 T10671126 =
2018-12-10 18:55 METAR K1P1 102355Z AUTO 24006KT 10SM CLR M06/M13 A3016 RMK AO2 T10651126 11026
                 21065 =
2018-12-10 18:35 METAR K1P1 102335Z AUTO 31005KT 10SM CLR M06/M12 A3015 RMK AO2 T10621125 =
2018-12-10 18:15 METAR K1P1 102315Z AUTO 30004KT 10SM CLR M06/M12 A3015 RMK AO2 T10601125 =
2018-12-10 17:55 METAR K1P1 102255Z AUTO 27004KT 10SM CLR M06/M12 A3015 RMK AO2 T10571123 =
2018-12-10 17:35 METAR K1P1 102235Z AUTO 26005KT 10SM CLR M05/M12 A3015 RMK AO2 T10551122 =
2018-12-10 17:15 METAR K1P1 102215Z AUTO 28006KT 10SM CLR M05/M12 A3014 RMK AO2 T10501123 =
2018-12-10 16:55 METAR K1P1 102155Z AUTO 28006KT 10SM CLR M05/M12 A3014 RMK AO2 T10481121 =
2018-12-10 16:35 METAR K1P1 102135Z AUTO 28006KT 10SM CLR M05/M12 A3014 RMK AO2 T10461121 =
2018-12-10 16:15 METAR K1P1 102115Z AUTO 23003KT 10SM CLR M04/M12 A3014 RMK AO2 T10431120 =
2018-12-10 15:55 METAR K1P1 102055Z AUTO 31006KT 10SM CLR M04/M12 A3013 RMK AO2 T10401118 =
2018-12-10 15:35 METAR K1P1 102035Z AUTO 30009KT 10SM CLR M04/M12 A3013 RMK AO2 T10391116 =
2018-12-10 15:15 METAR K1P1 102015Z AUTO 31006KT 10SM CLR M03/M12 A3012 RMK AO2 T10351116 =
2018-12-10 14:55 METAR K1P1 101955Z AUTO 30006KT 10SM CLR M03/M11 A3011 RMK AO2 T10301115 =
2018-12-10 14:35 METAR K1P1 101935Z AUTO 30006KT 10SM CLR M03/M11 A3011 RMK AO2 T10291114 =
2018-12-10 14:15 METAR K1P1 101915Z AUTO 31010G14KT 10SM CLR M03/M12 A3011 RMK AO2 T10271116 =
2018-12-10 13:55 METAR K1P1 101855Z AUTO 32009G15KT 10SM CLR M03/M11 A3011 RMK AO2 T10261115 =
2018-12-10 13:35 METAR K1P1 101835Z AUTO 29009G16KT 10SM CLR M03/M11 A3010 RMK AO2 T10271115 =
2018-12-10 13:15 METAR K1P1 101815Z AUTO 27009KT 10SM CLR M03/M11 A3010 RMK AO2 T10261115 =
2018-12-10 12:55 METAR K1P1 101755Z AUTO 26007KT 230V290 10SM CLR M03/M11 A3010 RMK AO2 T10281114
                 11021 21033 =
2018-12-10 12:35 METAR K1P1 101735Z AUTO 27006G16KT 230V290 10SM CLR M03/M11 A3010 RMK AO2
                 T10301112 =
2018-12-10 12:15 METAR K1P1 101715Z AUTO 30012G17KT 10SM CLR M03/M11 A3011 RMK AO2 T10311114 =
2018-12-10 11:55 METAR K1P1 101655Z AUTO 30013G18KT 10SM CLR M03/M11 A3011 RMK AO2 T10311112 =
2018-12-10 11:35 METAR K1P1 101635Z AUTO 29012G15KT 10SM CLR M03/M11 A3012 RMK AO2 T10291108 =
2018-12-10 11:15 METAR K1P1 101615Z AUTO 23011G17KT 10SM CLR M03/M11 A3013 RMK AO2 T10301111 =
2018-12-10 10:55 METAR K1P1 101555Z AUTO 23012G18KT 230V320 10SM CLR M03/M11 A3013 RMK AO2
                 T10301113 =
2018-12-10 10:35 METAR K1P1 101535Z AUTO 30011G15KT 10SM SCT037 M03/M11 A3013 RMK AO2 T10271114 =
2018-12-10 10:15 METAR K1P1 101515Z AUTO 23009G15KT 10SM SCT037 M03/M11 A3013 RMK AO2 T10291111 =
2018-12-10 09:55 METAR K1P1 101455Z AUTO 29010G17KT 240V310 10SM SCT037 M02/M11 A3014 RMK AO2
                 T10251108 =
2018-12-10 09:35 METAR K1P1 101435Z AUTO 32007KT 270V340 10SM CLR M02/M10 A3012 RMK AO2 T10251105
                 =
2018-12-10 09:15 METAR K1P1 101415Z AUTO 25009G16KT 230V330 10SM CLR M02/M10 A3011 RMK AO2
                 T10251103 =
2018-12-10 08:55 METAR K1P1 101355Z AUTO 25007KT 230V350 10SM CLR M02/M10 A3011 RMK AO2 T10251105
                 =
2018-12-10 08:35 METAR K1P1 101335Z AUTO 30011G16KT 230V320 10SM CLR M03/M10 A3010 RMK AO2
                 T10301098 =
2018-12-10 08:15 METAR K1P1 101315Z AUTO 32009KT 230V330 10SM CLR M03/M10 A3009 RMK AO2 T10271096
                 =
2018-12-10 07:55 METAR K1P1 101255Z AUTO 24005KT 10SM CLR M03/M10 A3009 RMK AO2 T10271096 =
2018-12-10 07:35 METAR K1P1 101235Z AUTO 27007KT 230V320 10SM SCT041 M02/M09 A3008 RMK AO2
                 T10251095 =
2018-12-10 07:15 METAR K1P1 101215Z AUTO 23009KT 10SM BKN045 M02/M09 A3007 RMK AO2 T10231095 =
2018-12-10 06:55 METAR K1P1 101155Z AUTO 34004KT 10SM OVC045 M02/M10 A3007 RMK AO2 T10211096
                 11018 21085 =
2018-12-10 06:35 METAR K1P1 101135Z AUTO 24005KT 10SM OVC041 M02/M09 A3007 RMK AO2 T10201086 =
2018-12-10 06:15 METAR K1P1 101115Z AUTO 33007KT 230V350 10SM OVC042 M02/M08 A3007 RMK AO2
                 T10201078 =
2018-12-10 05:55 METAR K1P1 101055Z AUTO 28006KT 10SM BKN041 OVC048 M02/M07 A3006 RMK AO2
                 T10201075 =
2018-12-10 05:35 METAR K1P1 101035Z AUTO 35004KT 10SM OVC046 M03/M06 A3006 RMK AO2 T10341058 =
2018-12-10 05:15 METAR K1P1 101015Z AUTO 00000KT 10SM SCT037 OVC046 M06/M07 A3005 RMK AO2
                 T10571068 =
2018-12-10 04:55 METAR K1P1 100955Z AUTO 00000KT 10SM BKN037 OVC044 M06/M07 A3005 RMK AO2
                 T10591066 =
2018-12-10 04:35 METAR K1P1 100935Z AUTO 00000KT 10SM BKN035 OVC044 M06/M07 A3004 RMK AO2
                 T10631071 =
2018-12-10 04:15 METAR K1P1 100915Z AUTO 00000KT 10SM SCT035 OVC044 M07/M07 A3004 RMK AO2
                 T10681075 =
2018-12-10 03:55 METAR K1P1 100855Z AUTO 00000KT 10SM OVC044 M07/M08 A3004 RMK AO2 T10731081 =
2018-12-10 03:35 METAR K1P1 100835Z AUTO 00000KT 10SM OVC046 M08/M09 A3004 RMK AO2 T10781086 =
2018-12-10 03:15 METAR K1P1 100815Z AUTO 00000KT 10SM SCT044 M08/M09 A3004 RMK AO2 T10841091 =
2018-12-10 02:55 METAR K1P1 100755Z AUTO 00000KT 10SM SCT044 M08/M09 A3005 RMK AO2 T10811090 =
2018-12-10 02:35 METAR K1P1 100735Z AUTO 00000KT 10SM SCT044 M08/M09 A3005 RMK AO2 T10811090 =
2018-12-10 02:15 METAR K1P1 100715Z AUTO 00000KT 10SM SCT033 BKN042 M08/M08 A3005 RMK AO2
                 T10771085 =
2018-12-10 01:55 METAR K1P1 100655Z AUTO 00000KT 10SM SCT035 OVC044 M07/M08 A3005 RMK AO2
                 T10751083 =
2018-12-10 01:35 METAR K1P1 100635Z AUTO 00000KT 10SM SCT037 OVC044 M07/M08 A3005 RMK AO2
                 T10701077 =
2018-12-10 01:15 METAR K1P1 100615Z AUTO 00000KT 10SM SCT039 OVC047 M08/M08 A3005 RMK AO2
                 T10761085 =
2018-12-10 00:55 METAR K1P1 100555Z AUTO 00000KT 10SM BKN037 BKN043 OVC050 M08/M09 A3005 RMK AO2
                 T10791087 11079 21108 =
2018-12-10 00:35 METAR K1P1 100535Z AUTO 00000KT 10SM BKN037 OVC044 M08/M09 A3006 RMK AO2
                 T10791086 =
2018-12-10 00:15 METAR K1P1 100515Z AUTO 00000KT 10SM BKN037 OVC044 M08/M09 A3006 RMK AO2
                 T10851094 =
2018-12-09 23:55 METAR K1P1 100455Z AUTO 00000KT 10SM OVC039 M09/M10 A3006 RMK AO2 T10901099 =
2018-12-09 23:35 METAR K1P1 100435Z AUTO 00000KT 10SM OVC039 M09/M10 A3007 RMK AO2 T10911100 =
2018-12-09 23:15 METAR K1P1 100415Z AUTO 00000KT 10SM OVC039 M10/M10 A3007 RMK AO2 T10961105 =
2018-12-09 22:55 METAR K1P1 100355Z AUTO 00000KT 10SM BKN039 OVC044 M10/M11 A3007 RMK AO2
                 T10971106 410151155 =
2018-12-09 22:35 METAR K1P1 100335Z AUTO 00000KT 10SM SCT039 OVC049 M10/M11 A3007 RMK AO2
                 T11001109 =
2018-12-09 22:15 METAR K1P1 100315Z AUTO 00000KT 10SM OVC047 M10/M11 A3007 RMK AO2 T11021112 =
2018-12-09 21:55 METAR K1P1 100255Z AUTO 00000KT 10SM BKN045 M10/M11 A3008 RMK AO2 T11051115 =
2018-12-09 21:35 METAR K1P1 100235Z AUTO 00000KT 10SM SCT045 M11/M12 A3009 RMK AO2 T11061117 =

Support USWX by starting your Amazon purchase here.